松山國際航空站 - 塔臺

METAR RCSS 011600Z 09013KT 9999 -DZ SCT008 BKN024 BKN035 18/17 Q1021 NOSIG RMK A3015=

站台狀態:Offline
最後更新:2022-12-02 01:00:01